createdAt,value
2023-03-17T00:01:51.503Z,8.90
2023-03-17T00:04:19.595Z,8.90
2023-03-17T00:06:46.615Z,8.90
2023-03-17T00:09:18.066Z,8.90
2023-03-17T00:11:45.602Z,8.90
2023-03-17T00:14:12.377Z,8.80
2023-03-17T00:16:42.319Z,8.80
2023-03-17T00:19:32.333Z,8.80
2023-03-17T00:22:00.846Z,8.70
2023-03-17T00:24:28.442Z,8.70
2023-03-17T00:26:55.169Z,8.70
2023-03-17T00:29:21.898Z,8.70
2023-03-17T00:31:49.358Z,8.60
2023-03-17T00:34:18.514Z,8.60
2023-03-17T00:36:48.268Z,8.60
2023-03-17T00:41:42.373Z,8.50
2023-03-17T00:44:09.734Z,8.50
2023-03-17T00:46:38.056Z,8.50
2023-03-17T00:51:44.631Z,8.50
2023-03-17T00:54:12.059Z,8.50
2023-03-17T00:56:39.731Z,8.50
2023-03-17T00:59:21.586Z,8.50
2023-03-17T01:01:49.093Z,8.40
2023-03-17T01:04:16.019Z,8.40
2023-03-17T01:06:43.201Z,8.40
2023-03-17T01:09:16.349Z,8.40
2023-03-17T01:11:44.068Z,8.30
2023-03-17T01:14:11.758Z,8.30
2023-03-17T01:16:38.907Z,8.30
2023-03-17T01:19:06.359Z,8.30
2023-03-17T01:21:33.064Z,8.30
2023-03-17T01:24:00.445Z,8.30
2023-03-17T01:26:27.273Z,8.20
2023-03-17T01:28:53.988Z,8.20
2023-03-17T01:31:20.841Z,8.20
2023-03-17T01:33:47.623Z,8.20
2023-03-17T01:36:15.673Z,8.20
2023-03-17T01:38:42.393Z,8.20
2023-03-17T01:41:09.048Z,8.20
2023-03-17T01:43:36.560Z,8.20
2023-03-17T01:46:35.270Z,8.20
2023-03-17T01:49:31.155Z,8.20
2023-03-17T01:52:00.989Z,8.10
2023-03-17T01:54:34.751Z,8.60
2023-03-17T01:57:24.817Z,8.10
2023-03-17T01:59:54.573Z,8.10
2023-03-17T02:02:34.976Z,8.10
2023-03-17T02:05:03.715Z,8.00
2023-03-17T02:07:31.410Z,8.00
2023-03-17T02:09:58.878Z,8.00
2023-03-17T02:12:25.954Z,8.00
2023-03-17T02:14:53.086Z,8.00
2023-03-17T02:17:24.208Z,8.00
2023-03-17T02:19:51.579Z,8.00
2023-03-17T02:22:20.201Z,8.00
2023-03-17T02:24:58.809Z,8.00
2023-03-17T02:27:38.559Z,8.00
2023-03-17T02:30:08.264Z,8.00
2023-03-17T02:32:36.352Z,8.00
2023-03-17T02:35:03.550Z,8.00
2023-03-17T02:37:30.348Z,8.00
2023-03-17T02:39:57.210Z,8.00
2023-03-17T02:42:24.450Z,8.00
2023-03-17T02:44:51.051Z,8.00
2023-03-17T02:47:17.669Z,7.90
2023-03-17T02:49:45.457Z,7.90
2023-03-17T02:52:12.221Z,7.90
2023-03-17T02:54:39.032Z,7.90
2023-03-17T02:57:06.436Z,7.90
2023-03-17T02:59:33.170Z,7.90
2023-03-17T03:02:00.938Z,7.90
2023-03-17T03:04:27.731Z,7.90
2023-03-17T03:06:54.813Z,7.90
2023-03-17T03:09:21.598Z,7.80
2023-03-17T03:11:48.427Z,7.80
2023-03-17T03:14:15.108Z,7.80
2023-03-17T03:16:41.820Z,7.80
2023-03-17T03:19:08.939Z,7.80
2023-03-17T03:21:36.628Z,7.80
2023-03-17T03:24:04.185Z,7.70
2023-03-17T03:26:31.040Z,7.70
2023-03-17T03:28:58.425Z,7.70
2023-03-17T03:31:25.230Z,7.70
2023-03-17T03:33:51.973Z,7.70
2023-03-17T03:36:18.802Z,7.70
2023-03-17T03:38:45.779Z,7.70
2023-03-17T03:41:13.007Z,7.60
2023-03-17T03:43:39.808Z,7.60
2023-03-17T03:46:06.582Z,7.60
2023-03-17T03:48:33.631Z,7.60
2023-03-17T03:51:02.272Z,7.60
2023-03-17T03:53:29.391Z,7.60
2023-03-17T03:55:56.354Z,7.60
2023-03-17T03:58:23.101Z,7.50
2023-03-17T04:00:50.333Z,7.50
2023-03-17T04:03:17.024Z,7.50
2023-03-17T04:05:43.666Z,7.50
2023-03-17T04:08:11.307Z,7.50
2023-03-17T04:10:38.037Z,7.50
2023-03-17T04:13:04.701Z,7.30
2023-03-17T04:15:31.356Z,7.50
2023-03-17T04:17:57.984Z,7.50
2023-03-17T04:20:24.621Z,7.40
2023-03-17T04:22:51.742Z,7.40
2023-03-17T04:25:18.616Z,7.40
2023-03-17T04:27:45.268Z,7.30
2023-03-17T04:30:13.820Z,7.30
2023-03-17T04:32:40.955Z,7.30
2023-03-17T04:35:09.204Z,7.30
2023-03-17T04:37:36.080Z,7.30
2023-03-17T04:40:02.792Z,7.30
2023-03-17T04:42:29.414Z,7.20
2023-03-17T04:44:56.100Z,7.20
2023-03-17T04:47:22.719Z,7.20
2023-03-17T04:49:49.337Z,7.20
2023-03-17T04:52:16.006Z,7.20
2023-03-17T04:54:42.644Z,7.10
2023-03-17T04:57:10.106Z,7.20
2023-03-17T04:59:37.032Z,7.10
2023-03-17T05:02:03.767Z,7.10
2023-03-17T05:04:32.355Z,7.10
2023-03-17T05:06:59.772Z,7.10
2023-03-17T05:09:28.649Z,7.10
2023-03-17T05:11:55.956Z,7.10
2023-03-17T05:14:22.592Z,7.10
2023-03-17T05:16:49.835Z,7.10
2023-03-17T05:19:17.424Z,7.10
2023-03-17T05:21:44.152Z,7.10
2023-03-17T05:24:10.853Z,7.00
2023-03-17T05:26:38.687Z,7.00
2023-03-17T05:29:05.479Z,7.00
2023-03-17T05:31:32.235Z,7.00
2023-03-17T05:33:59.527Z,7.00
2023-03-17T05:36:26.230Z,6.90
2023-03-17T05:38:53.221Z,6.90
2023-03-17T05:41:20.398Z,6.90
2023-03-17T05:43:47.269Z,6.90
2023-03-17T05:46:14.555Z,8.10
2023-03-17T05:48:41.895Z,6.80
2023-03-17T05:51:08.567Z,6.80
2023-03-17T05:53:38.512Z,6.80
2023-03-17T05:56:06.784Z,6.80
2023-03-17T05:58:33.783Z,6.80
2023-03-17T06:01:00.587Z,6.80
2023-03-17T06:03:27.471Z,6.80
2023-03-17T06:05:54.259Z,6.80
2023-03-17T06:08:21.303Z,6.80
2023-03-17T06:10:48.061Z,6.70
2023-03-17T06:13:15.427Z,6.70
2023-03-17T06:15:43.066Z,6.70
2023-03-17T06:18:09.758Z,6.70
2023-03-17T06:20:36.726Z,6.60
2023-03-17T06:23:05.627Z,6.60
2023-03-17T06:25:34.482Z,6.60
2023-03-17T06:28:03.542Z,6.60
2023-03-17T06:30:33.977Z,6.60
2023-03-17T06:33:01.660Z,6.60
2023-03-17T06:35:29.392Z,6.60
2023-03-17T06:37:56.298Z,6.60
2023-03-17T06:40:22.971Z,6.60
2023-03-17T06:42:49.641Z,6.60
2023-03-17T06:45:17.317Z,6.60
2023-03-17T06:47:43.996Z,6.50
2023-03-17T06:50:12.177Z,6.60
2023-03-17T06:52:40.057Z,6.60
2023-03-17T06:55:07.283Z,6.60
2023-03-17T06:57:34.029Z,6.60
2023-03-17T07:00:00.727Z,6.60
2023-03-17T07:02:27.379Z,6.60
2023-03-17T07:04:54.121Z,6.50
2023-03-17T07:07:21.087Z,6.50
2023-03-17T07:09:47.991Z,6.50
2023-03-17T07:12:14.830Z,6.50
2023-03-17T07:14:41.859Z,6.50
2023-03-17T07:17:12.393Z,6.60
2023-03-17T07:19:39.885Z,6.60
2023-03-17T07:22:07.200Z,6.60
2023-03-17T07:24:33.860Z,6.60
2023-03-17T07:27:00.548Z,6.60
2023-03-17T07:29:28.465Z,7.90
2023-03-17T07:31:55.167Z,6.70
2023-03-17T07:34:22.184Z,6.70
2023-03-17T07:36:48.868Z,6.80
2023-03-17T07:39:15.591Z,6.80
2023-03-17T07:41:43.968Z,6.80
2023-03-17T07:44:11.811Z,6.90
2023-03-17T07:46:38.973Z,6.90
2023-03-17T07:49:06.147Z,6.90
2023-03-17T07:51:32.850Z,7.00
2023-03-17T07:54:03.913Z,7.00
2023-03-17T07:56:31.757Z,7.00
2023-03-17T07:58:59.202Z,7.10
2023-03-17T08:01:27.030Z,7.10
2023-03-17T08:03:54.877Z,7.10
2023-03-17T08:06:21.854Z,7.10
2023-03-17T08:08:48.692Z,7.20
2023-03-17T08:11:15.825Z,7.20
2023-03-17T08:13:42.559Z,7.20
2023-03-17T08:16:09.554Z,7.20
2023-03-17T08:18:36.847Z,7.30
2023-03-17T08:21:03.825Z,7.30
2023-03-17T08:23:31.068Z,7.40
2023-03-17T08:25:59.093Z,7.40
2023-03-17T08:28:25.914Z,7.50
2023-03-17T08:30:52.630Z,7.60
2023-03-17T08:33:19.360Z,7.70
2023-03-17T08:35:46.162Z,7.70
2023-03-17T08:38:13.092Z,7.80
2023-03-17T08:40:40.344Z,10.30
2023-03-17T08:43:07.660Z,7.90
2023-03-17T08:45:34.586Z,8.00
2023-03-17T08:48:01.238Z,8.10
2023-03-17T08:50:27.966Z,8.20
2023-03-17T08:52:55.055Z,8.30
2023-03-17T08:55:21.658Z,8.40
2023-03-17T08:57:48.660Z,8.60
2023-03-17T09:00:20.653Z,8.70
2023-03-17T09:02:48.088Z,8.80
2023-03-17T09:05:16.641Z,9.10
2023-03-17T09:07:43.686Z,9.10
2023-03-17T09:10:11.395Z,9.20
2023-03-17T09:12:38.206Z,9.30
2023-03-17T09:15:05.714Z,9.50
2023-03-17T09:17:32.311Z,9.60
2023-03-17T09:19:59.614Z,9.70
2023-03-17T09:22:26.243Z,9.70
2023-03-17T09:24:53.194Z,12.90
2023-03-17T09:27:19.834Z,9.90
2023-03-17T09:29:46.552Z,10.00
2023-03-17T09:32:13.220Z,10.10
2023-03-17T09:34:39.899Z,10.20
2023-03-17T09:37:06.751Z,10.30
2023-03-17T09:39:33.476Z,10.40
2023-03-17T09:42:18.569Z,10.50
2023-03-17T09:45:02.813Z,10.70
2023-03-17T09:48:00.392Z,10.80
2023-03-17T09:50:45.843Z,10.90
2023-03-17T09:53:46.189Z,11.10
2023-03-17T09:56:16.156Z,11.20
2023-03-17T09:58:51.145Z,11.30
2023-03-17T10:01:18.443Z,11.40
2023-03-17T10:03:46.054Z,11.50
2023-03-17T10:06:24.763Z,11.70
2023-03-17T10:09:08.256Z,11.70
2023-03-17T10:11:43.422Z,11.90
2023-03-17T10:14:27.200Z,12.00
2023-03-17T10:17:02.325Z,12.10
2023-03-17T10:19:55.240Z,12.20
2023-03-17T10:22:38.024Z,12.30
2023-03-17T10:25:13.505Z,12.50
2023-03-17T10:27:40.749Z,12.70
2023-03-17T10:30:18.781Z,12.70
2023-03-17T10:32:46.572Z,12.90
2023-03-17T10:35:15.013Z,13.00
2023-03-17T10:37:43.869Z,13.10
2023-03-17T10:40:24.486Z,13.20
2023-03-17T10:43:07.967Z,13.30
2023-03-17T10:45:43.280Z,13.40
2023-03-17T10:48:17.569Z,13.50
2023-03-17T10:50:48.603Z,13.60
2023-03-17T10:53:28.015Z,13.60
2023-03-17T10:55:59.588Z,13.70
2023-03-17T10:58:36.958Z,13.80
2023-03-17T11:01:07.915Z,13.80
2023-03-17T11:03:39.855Z,13.90
2023-03-17T11:06:12.315Z,14.10
2023-03-17T11:08:51.239Z,14.20
2023-03-17T11:11:34.546Z,14.20
2023-03-17T11:14:16.143Z,14.40
2023-03-17T11:16:59.892Z,14.40
2023-03-17T11:19:38.216Z,14.50
2023-03-17T11:22:41.338Z,14.60
2023-03-17T11:25:17.298Z,14.70
2023-03-17T11:27:47.593Z,14.80
2023-03-17T11:30:33.905Z,14.90
2023-03-17T11:33:27.985Z,15.00
2023-03-17T11:35:59.898Z,15.20
2023-03-17T11:38:31.690Z,15.30
2023-03-17T11:41:21.864Z,15.30
2023-03-17T11:44:08.094Z,15.50
2023-03-17T11:46:41.073Z,15.60
2023-03-17T11:49:18.938Z,15.70
2023-03-17T11:51:56.564Z,15.80
2023-03-17T11:54:44.543Z,15.90
2023-03-17T11:57:32.233Z,16.00
2023-03-17T12:00:03.962Z,16.10
2023-03-17T12:02:41.534Z,16.20
2023-03-17T12:05:16.746Z,16.30
2023-03-17T12:07:51.504Z,16.40
2023-03-17T12:10:25.531Z,16.50
2023-03-17T12:13:12.283Z,16.60
2023-03-17T12:15:48.897Z,16.70
2023-03-17T12:18:21.341Z,16.80
2023-03-17T12:21:05.825Z,16.90
2023-03-17T12:23:52.925Z,17.00
2023-03-17T12:26:41.241Z,17.10
2023-03-17T12:29:34.892Z,17.20
2023-03-17T12:32:24.629Z,17.30
2023-03-17T12:34:59.817Z,17.40
2023-03-17T12:37:28.231Z,17.00
2023-03-17T12:40:00.760Z,17.60
2023-03-17T12:42:34.276Z,17.70
2023-03-17T12:45:34.016Z,17.80
2023-03-17T12:48:19.295Z,17.90
2023-03-17T12:51:23.497Z,18.00
2023-03-17T12:53:51.558Z,18.10
2023-03-17T12:56:26.039Z,18.20
2023-03-17T12:58:58.571Z,18.30
2023-03-17T13:01:41.742Z,18.30
2023-03-17T13:04:32.361Z,18.50
2023-03-17T13:07:15.956Z,18.50
2023-03-17T13:09:49.867Z,18.60
2023-03-17T13:12:35.655Z,18.70
2023-03-17T13:15:02.615Z,18.70
2023-03-17T13:17:30.447Z,18.80
2023-03-17T13:20:03.239Z,18.90
2023-03-17T13:23:07.353Z,19.00
2023-03-17T13:25:38.214Z,19.00
2023-03-17T13:28:13.684Z,19.10
2023-03-17T13:30:40.344Z,19.20
2023-03-17T13:33:10.183Z,19.30
2023-03-17T13:35:40.123Z,19.30
2023-03-17T13:38:22.216Z,19.40
2023-03-17T13:41:06.939Z,19.50
2023-03-17T13:44:04.255Z,19.50
2023-03-17T13:46:41.566Z,19.70
2023-03-17T13:49:24.093Z,19.70
2023-03-17T13:52:02.404Z,19.70
2023-03-17T13:54:33.257Z,19.80
2023-03-17T13:57:22.818Z,19.90
2023-03-17T13:59:55.506Z,20.00
2023-03-17T14:02:25.291Z,20.00
2023-03-17T14:04:57.492Z,20.10
2023-03-17T14:07:27.278Z,20.10
2023-03-17T14:09:59.509Z,21.10
2023-03-17T14:12:42.915Z,20.20
2023-03-17T14:15:33.806Z,20.30
2023-03-17T14:18:18.961Z,20.30
2023-03-17T14:20:59.740Z,20.40
2023-03-17T14:23:26.798Z,20.50
2023-03-17T14:25:57.623Z,20.40
2023-03-17T14:28:27.836Z,20.50
2023-03-17T14:30:56.911Z,20.50
2023-03-17T14:33:31.739Z,20.60
2023-03-17T14:36:01.117Z,20.60
2023-03-17T14:38:33.530Z,20.70
2023-03-17T14:41:13.705Z,20.70
2023-03-17T14:43:47.041Z,20.80
2023-03-17T14:46:18.513Z,20.80
2023-03-17T14:48:48.811Z,20.80
2023-03-17T14:51:36.958Z,21.00
2023-03-17T14:54:10.152Z,20.90
2023-03-17T14:56:52.760Z,20.90
2023-03-17T14:59:36.204Z,21.00
2023-03-17T15:02:23.435Z,21.00
2023-03-17T15:04:57.367Z,21.00
2023-03-17T15:07:31.726Z,21.00
2023-03-17T15:10:01.775Z,21.00
2023-03-17T15:12:29.493Z,21.10
2023-03-17T15:15:05.014Z,21.10
2023-03-17T15:17:34.061Z,21.10
2023-03-17T15:20:04.591Z,21.10
2023-03-17T15:22:36.430Z,21.10
2023-03-17T15:51:27.044Z,21.10
2023-03-17T15:53:53.717Z,21.10
2023-03-17T15:56:21.517Z,21.10
2023-03-17T15:58:52.185Z,21.10
2023-03-17T16:01:19.784Z,21.10
2023-03-17T16:03:47.305Z,21.10
2023-03-17T16:06:22.093Z,21.10
2023-03-17T16:08:49.801Z,21.10
2023-03-17T16:11:19.158Z,21.10
2023-03-17T16:13:46.891Z,21.10
2023-03-17T16:16:21.353Z,21.10
2023-03-17T16:18:49.143Z,21.00
2023-03-17T16:21:16.912Z,21.00
2023-03-17T16:23:43.933Z,21.00
2023-03-17T16:26:16.023Z,21.00
2023-03-17T16:28:45.312Z,21.00
2023-03-17T16:31:18.397Z,20.90
2023-03-17T16:33:45.645Z,20.90
2023-03-17T16:36:17.597Z,20.90
2023-03-17T16:38:44.804Z,20.90
2023-03-17T16:41:23.074Z,20.80
2023-03-17T16:43:57.963Z,20.80
2023-03-17T16:46:26.652Z,20.80
2023-03-17T16:48:53.421Z,20.70
2023-03-17T16:51:20.308Z,20.70
2023-03-17T16:53:47.290Z,20.70
2023-03-17T16:56:17.587Z,20.60
2023-03-17T16:58:45.078Z,20.50
2023-03-17T17:01:15.233Z,20.60
2023-03-17T17:03:42.298Z,20.50
2023-03-17T17:06:10.523Z,20.50
2023-03-17T17:08:44.510Z,20.50
2023-03-17T17:11:17.004Z,20.40
2023-03-17T17:13:46.003Z,20.40
2023-03-17T17:16:20.565Z,20.40
2023-03-17T17:21:14.379Z,20.30
2023-03-17T17:23:40.980Z,20.20
2023-03-17T17:26:07.637Z,20.20
2023-03-17T17:28:34.453Z,20.20
2023-03-17T17:31:01.683Z,20.40
2023-03-17T17:33:28.395Z,20.30
2023-03-17T17:35:55.253Z,20.00
2023-03-17T17:38:27.050Z,20.00
2023-03-17T17:40:55.401Z,20.00
2023-03-17T17:43:22.288Z,19.90
2023-03-17T17:45:49.168Z,19.90
2023-03-17T17:48:17.107Z,19.80
2023-03-17T17:53:12.319Z,19.80
2023-03-17T17:55:40.979Z,19.70
2023-03-17T17:58:14.703Z,19.70
2023-03-17T18:00:42.052Z,19.60
2023-03-17T18:03:09.270Z,19.60
2023-03-17T18:05:36.794Z,19.50
2023-03-17T18:08:03.984Z,19.50
2023-03-17T18:10:31.568Z,19.50
2023-03-17T18:12:58.446Z,19.40
2023-03-17T18:15:26.475Z,19.30
2023-03-17T18:17:53.664Z,19.30
2023-03-17T18:20:21.860Z,19.20
2023-03-17T18:22:49.773Z,19.20
2023-03-17T18:25:17.177Z,19.10
2023-03-17T18:27:44.351Z,19.10
2023-03-17T18:30:13.819Z,19.00
2023-03-17T18:32:42.701Z,19.00
2023-03-17T18:35:13.108Z,18.80
2023-03-17T18:37:39.863Z,18.80
2023-03-17T18:40:14.481Z,18.80
2023-03-17T18:42:43.110Z,18.80
2023-03-17T18:45:11.515Z,18.70
2023-03-17T18:47:39.020Z,18.60
2023-03-17T18:50:07.931Z,18.50
2023-03-17T18:52:36.006Z,18.50
2023-03-17T18:55:03.125Z,18.40
2023-03-17T18:57:29.752Z,18.40
2023-03-17T18:59:56.461Z,18.40
2023-03-17T19:02:23.695Z,19.40
2023-03-17T19:04:50.351Z,18.30
2023-03-17T19:07:17.877Z,18.20
2023-03-17T19:09:45.098Z,18.20
2023-03-17T19:12:12.117Z,18.20
2023-03-17T19:14:39.797Z,18.10
2023-03-17T19:19:34.456Z,18.00
2023-03-17T19:24:28.354Z,17.90
2023-03-17T19:26:55.196Z,17.90
2023-03-17T19:29:21.863Z,17.80
2023-03-17T19:31:48.880Z,17.80
2023-03-17T19:34:15.604Z,17.80
2023-03-17T19:36:46.394Z,17.70
2023-03-17T19:39:13.594Z,17.70
2023-03-17T19:41:40.466Z,17.60
2023-03-17T19:46:37.236Z,17.50
2023-03-17T19:49:04.801Z,17.50
2023-03-17T19:51:32.953Z,17.40
2023-03-17T19:53:59.785Z,17.30
2023-03-17T19:56:27.716Z,17.30
2023-03-17T19:58:54.772Z,17.20
2023-03-17T20:01:21.978Z,17.20
2023-03-17T20:03:49.069Z,17.10
2023-03-17T20:06:18.292Z,17.40
2023-03-17T20:08:44.978Z,17.00
2023-03-17T20:11:12.711Z,17.10
2023-03-17T20:16:07.849Z,16.90
2023-03-17T20:18:34.991Z,16.90
2023-03-17T20:21:05.384Z,16.70
2023-03-17T20:23:32.324Z,16.80
2023-03-17T20:25:58.925Z,16.70
2023-03-17T20:28:25.656Z,16.70
2023-03-17T20:30:52.451Z,16.70
2023-03-17T20:33:19.114Z,16.70
2023-03-17T20:35:47.244Z,16.60
2023-03-17T20:38:14.591Z,16.60
2023-03-17T20:40:43.415Z,16.50
2023-03-17T20:43:10.653Z,16.50
2023-03-17T20:45:38.340Z,16.40
2023-03-17T20:48:06.096Z,16.40
2023-03-17T20:53:01.593Z,16.30
2023-03-17T20:55:28.782Z,16.20
2023-03-17T20:57:58.618Z,16.20
2023-03-17T21:00:26.155Z,16.20
2023-03-17T21:02:53.062Z,16.10
2023-03-17T21:05:25.211Z,16.10
2023-03-17T21:07:51.839Z,16.10
2023-03-17T21:10:19.350Z,16.10
2023-03-17T21:12:46.384Z,16.00
2023-03-17T21:15:13.863Z,16.00
2023-03-17T21:17:41.990Z,15.90
2023-03-17T21:20:13.119Z,15.90
2023-03-17T21:25:10.034Z,15.80
2023-03-17T21:27:37.753Z,15.80
2023-03-17T21:30:08.768Z,15.70
2023-03-17T21:32:36.132Z,15.70
2023-03-17T21:35:02.765Z,15.70
2023-03-17T21:37:29.565Z,15.60
2023-03-17T21:39:56.626Z,15.60
2023-03-17T21:44:52.204Z,15.50
2023-03-17T21:47:19.642Z,15.50
2023-03-17T21:49:46.496Z,15.40
2023-03-17T21:52:14.869Z,15.40
2023-03-17T21:54:42.104Z,15.40
2023-03-17T21:57:09.025Z,15.30
2023-03-17T21:59:35.775Z,15.30
2023-03-17T22:02:02.848Z,15.30
2023-03-17T22:04:31.772Z,15.30
2023-03-17T22:06:58.923Z,15.10
2023-03-17T22:09:25.983Z,15.10
2023-03-17T22:11:52.769Z,15.10
2023-03-17T22:14:20.584Z,15.10
2023-03-17T22:16:48.421Z,15.00
2023-03-17T22:19:15.546Z,15.00
2023-03-17T22:21:42.817Z,15.00
2023-03-17T22:24:10.072Z,15.00
2023-03-17T22:26:36.867Z,14.90
2023-03-17T22:29:03.978Z,14.90
2023-03-17T22:31:31.371Z,14.90
2023-03-17T22:33:59.058Z,14.80
2023-03-17T22:36:27.073Z,14.80
2023-03-17T22:38:54.609Z,14.80
2023-03-17T22:41:23.686Z,14.70
2023-03-17T22:43:50.706Z,14.70
2023-03-17T22:46:18.278Z,14.70
2023-03-17T22:48:46.073Z,14.70
2023-03-17T22:51:15.735Z,14.60
2023-03-17T22:53:42.808Z,14.60
2023-03-17T22:56:10.915Z,14.60
2023-03-17T22:58:38.018Z,14.60
2023-03-17T23:01:06.402Z,14.60
2023-03-17T23:03:33.912Z,14.50
2023-03-17T23:06:02.294Z,14.50
2023-03-17T23:08:31.475Z,14.50
2023-03-17T23:11:00.605Z,14.40
2023-03-17T23:13:27.724Z,14.40
2023-03-17T23:15:57.345Z,14.40
2023-03-17T23:18:24.058Z,14.40
2023-03-17T23:20:50.751Z,14.40
2023-03-17T23:23:17.622Z,14.30
2023-03-17T23:25:44.258Z,14.30
2023-03-17T23:28:11.018Z,14.30
2023-03-17T23:30:37.831Z,14.20
2023-03-17T23:33:04.993Z,14.20
2023-03-17T23:35:32.176Z,14.20
2023-03-17T23:37:59.445Z,14.20
2023-03-17T23:40:26.282Z,14.10
2023-03-17T23:42:55.037Z,14.10
2023-03-17T23:45:23.131Z,14.10
2023-03-17T23:47:51.592Z,14.10
2023-03-17T23:50:19.342Z,14.00
2023-03-17T23:52:47.039Z,14.00
2023-03-17T23:55:14.484Z,14.00
2023-03-17T23:57:41.547Z,14.00
